Time;durP1;ratioP1;P1;durP2;ratioP2;P2;SDS_P1;SDS_P2;PMS_P1;PMS_P2;Temp;Humidity;BMP_temperature;BMP_pressure;BME280_temperature;BME280_humidity;BME280_pressure;Samples;Min_cycle;Max_cycle;Signal;HPM_P1;HPM_P2
2023/04/16 00:00:31;;;;;;;8.55;3.22;;;8.60;71.20;;;;;;4792099;29;20107;-93
2023/04/16 00:02:59;;;;;;;8.33;3.23;;;8.70;71.50;;;;;;4791871;29;20050;-92
2023/04/16 00:05:26;;;;;;;8.00;2.60;;;8.70;71.40;;;;;;4806876;29;20141;-92
2023/04/16 00:07:53;;;;;;;7.38;2.83;;;8.60;71.40;;;;;;4791729;29;20057;-92
2023/04/16 00:10:20;;;;;;;9.45;3.10;;;8.50;72.30;;;;;;4806663;29;20055;-93
2023/04/16 00:12:47;;;;;;;9.43;3.33;;;8.50;72.30;;;;;;4791613;29;20090;-93
2023/04/16 00:15:14;;;;;;;9.27;3.33;;;8.50;72.60;;;;;;4806692;29;20066;-93
2023/04/16 00:17:41;;;;;;;10.52;3.55;;;8.40;72.60;;;;;;4791624;29;20047;-92
2023/04/16 00:20:09;;;;;;;9.55;3.42;;;8.30;73.00;;;;;;4806352;29;20066;-93
2023/04/16 00:22:36;;;;;;;10.70;3.90;;;8.20;73.40;;;;;;4791624;29;20130;-92
2023/04/16 00:25:03;;;;;;;10.20;4.25;;;8.10;73.20;;;;;;4791824;29;20521;-93
2023/04/16 00:27:31;;;;;;;11.20;4.07;;;8.00;74.10;;;;;;4806606;29;20054;-93
2023/04/16 00:29:58;;;;;;;10.05;3.80;;;7.90;74.30;;;;;;4806499;29;20409;-92
2023/04/16 00:32:25;;;;;;;10.68;4.30;;;7.90;74.40;;;;;;4806481;29;20042;-92
2023/04/16 00:34:52;;;;;;;9.90;4.20;;;7.90;74.40;;;;;;4794171;29;20047;-93
2023/04/16 00:37:19;;;;;;;9.82;4.20;;;7.90;74.50;;;;;;4810658;29;20047;-92
2023/04/16 00:39:46;;;;;;;10.97;4.40;;;7.90;74.50;;;;;;4795288;29;20461;-94
2023/04/16 00:42:14;;;;;;;12.95;4.45;;;7.80;74.40;;;;;;4810604;29;20051;-93
2023/04/16 00:44:41;;;;;;;11.68;4.75;;;7.80;74.60;;;;;;4795098;29;20055;-93
2023/04/16 00:47:09;;;;;;;11.02;4.30;;;7.80;74.50;;;;;;4810600;29;20421;-93
2023/04/16 00:49:36;;;;;;;9.90;4.13;;;7.70;74.70;;;;;;4795751;29;20054;-93
2023/04/16 00:52:03;;;;;;;10.03;4.00;;;7.80;74.90;;;;;;4794838;29;20046;-92
2023/04/16 00:54:31;;;;;;;10.75;4.28;;;7.80;75.00;;;;;;4794811;29;20540;-92
2023/04/16 00:56:58;;;;;;;10.85;4.60;;;7.80;75.10;;;;;;4809986;29;20051;-93
2023/04/16 00:59:26;;;;;;;11.75;4.60;;;7.70;75.30;;;;;;4794926;29;20100;-92
2023/04/16 01:01:53;;;;;;;11.75;5.00;;;7.80;75.60;;;;;;4809792;29;20058;-92
2023/04/16 01:04:21;;;;;;;9.80;4.00;;;7.80;75.50;;;;;;4794573;29;20051;-92
2023/04/16 01:06:51;;;;;;;10.40;4.57;;;7.80;75.40;;;;;;4815981;29;20066;-94
2023/04/16 01:09:18;;;;;;;10.95;4.35;;;7.80;75.40;;;;;;4811810;29;20051;-95
2023/04/16 01:11:45;;;;;;;12.07;4.47;;;7.80;75.50;;;;;;4795172;29;20058;-94
2023/04/16 01:14:13;;;;;;;10.07;4.38;;;7.80;75.30;;;;;;4810156;29;20055;-94
2023/04/16 01:16:40;;;;;;;10.00;3.80;;;7.90;75.10;;;;;;4794654;29;20078;-94
2023/04/16 01:19:07;;;;;;;10.45;4.35;;;8.00;74.80;;;;;;4809499;29;20047;-95
2023/04/16 01:21:35;;;;;;;9.73;3.72;;;8.00;74.60;;;;;;4809470;29;20073;-94
2023/04/16 01:24:03;;;;;;;9.88;3.90;;;8.00;74.40;;;;;;4809617;29;20115;-95
2023/04/16 01:26:32;;;;;;;11.68;4.00;;;8.00;74.20;;;;;;4794555;29;20058;-94
2023/04/16 01:29:00;;;;;;;9.33;4.00;;;8.00;74.00;;;;;;4809922;29;20069;-95
2023/04/16 01:31:27;;;;;;;10.02;4.07;;;8.00;73.80;;;;;;4809608;29;20055;-94
2023/04/16 01:34:00;;;;;;;10.27;3.33;;;8.10;73.40;;;;;;4794984;29;20047;-94
2023/04/16 01:36:27;;;;;;;9.23;4.35;;;8.10;73.10;;;;;;4794791;29;20143;-94
2023/04/16 01:38:54;;;;;;;9.25;3.40;;;8.00;73.50;;;;;;4794451;29;20070;-95
2023/04/16 01:41:22;;;;;;;10.80;3.97;;;7.90;73.60;;;;;;4809506;29;20138;-94
2023/04/16 01:43:50;;;;;;;11.75;3.80;;;7.90;73.70;;;;;;4809625;29;20147;-94
2023/04/16 01:46:22;;;;;;;8.82;3.80;;;7.90;73.70;;;;;;4794198;29;20054;-94
2023/04/16 01:48:49;;;;;;;10.52;4.03;;;7.90;73.50;;;;;;4809411;29;20113;-95
2023/04/16 01:51:18;;;;;;;9.43;4.15;;;7.90;73.70;;;;;;4794204;29;20043;-94
2023/04/16 01:53:45;;;;;;;12.63;4.03;;;7.70;73.70;;;;;;4809057;29;20081;-95
2023/04/16 01:56:12;;;;;;;10.32;4.95;;;7.70;74.70;;;;;;4808928;29;20502;-95
2023/04/16 01:58:41;;;;;;;10.95;4.47;;;7.50;75.40;;;;;;4808789;29;20042;-94
2023/04/16 02:01:09;;;;;;;10.68;3.75;;;7.40;76.00;;;;;;4808888;29;20451;-94
2023/04/16 02:03:37;;;;;;;9.55;4.10;;;7.40;75.90;;;;;;4809176;29;20628;-94
2023/04/16 02:06:05;;;;;;;10.43;4.07;;;7.40;75.70;;;;;;4796732;29;20146;-94
2023/04/16 02:08:32;;;;;;;10.60;3.78;;;7.40;75.50;;;;;;4795623;29;20054;-94
2023/04/16 02:10:59;;;;;;;11.40;4.28;;;7.50;75.30;;;;;;4809475;29;20046;-93
2023/04/16 02:13:27;;;;;;;10.57;3.78;;;7.50;75.30;;;;;;4794039;29;20123;-94
2023/04/16 02:15:54;;;;;;;10.63;3.85;;;7.40;75.30;;;;;;4808762;29;20047;-95
2023/04/16 02:18:44;;;;;;;9.97;3.20;;;7.40;75.20;;;;;;4812476;29;20067;-93
2023/04/16 02:21:13;;;;;;;11.02;3.47;;;7.40;75.00;;;;;;4810435;29;20146;-94
2023/04/16 02:23:44;;;;;;;10.60;3.70;;;7.30;75.30;;;;;;4810997;29;20078;-94
2023/04/16 02:26:12;;;;;;;10.50;3.90;;;7.30;75.70;;;;;;4810084;29;20059;-92
2023/04/16 02:28:39;;;;;;;10.50;3.83;;;7.10;76.30;;;;;;4795261;29;20058;-93
2023/04/16 02:31:09;;;;;;;10.90;4.20;;;7.10;76.40;;;;;;4809670;29;20055;-94
2023/04/16 02:33:41;;;;;;;12.40;4.18;;;7.10;76.50;;;;;;4796906;29;20073;-93
2023/04/16 02:36:10;;;;;;;10.30;4.22;;;7.10;76.60;;;;;;4799792;29;20046;-95
2023/04/16 02:38:37;;;;;;;10.50;3.53;;;7.00;76.70;;;;;;4815347;29;20062;-94
2023/04/16 02:41:05;;;;;;;10.05;3.72;;;7.00;76.70;;;;;;4799148;29;20141;-94
2023/04/16 02:43:33;;;;;;;9.57;3.80;;;7.00;76.90;;;;;;4813976;29;20051;-95
2023/04/16 02:46:01;;;;;;;10.18;3.30;;;7.00;76.80;;;;;;4812756;29;20059;-95
2023/04/16 02:48:30;;;;;;;10.20;3.58;;;6.90;76.80;;;;;;4796924;29;20047;-93
2023/04/16 02:50:58;;;;;;;10.88;3.88;;;7.00;76.90;;;;;;4793917;29;20061;-93
2023/04/16 02:53:25;;;;;;;8.10;3.20;;;6.90;77.10;;;;;;4808993;29;20051;-94
2023/04/16 02:55:53;;;;;;;10.23;3.90;;;7.00;77.10;;;;;;4795761;29;20051;-94
2023/04/16 02:58:25;;;;;;;12.20;4.57;;;6.90;77.00;;;;;;4811567;29;20149;-95
2023/04/16 03:00:53;;;;;;;9.98;3.65;;;6.90;77.20;;;;;;4810963;29;20055;-95
2023/04/16 03:03:21;;;;;;;8.90;3.90;;;6.90;77.60;;;;;;4794596;29;20122;-95
2023/04/16 03:05:48;;;;;;;9.88;3.90;;;6.80;77.70;;;;;;4809142;29;20565;-94
2023/04/16 03:08:16;;;;;;;11.37;4.27;;;6.80;77.70;;;;;;4794109;29;20506;-95
2023/04/16 03:10:43;;;;;;;9.43;3.53;;;6.80;77.60;;;;;;4810849;29;20063;-96
2023/04/16 03:13:10;;;;;;;8.55;3.50;;;6.80;77.50;;;;;;4796334;29;20055;-95
2023/04/16 03:15:38;;;;;;;9.93;4.07;;;6.80;77.90;;;;;;4810813;29;20081;-94
2023/04/16 03:18:05;;;;;;;9.10;3.58;;;6.70;78.20;;;;;;4809595;29;20093;-95
2023/04/16 03:20:32;;;;;;;9.53;3.50;;;6.70;78.20;;;;;;4809095;29;20543;-94
2023/04/16 03:23:00;;;;;;;9.95;3.50;;;6.70;78.40;;;;;;4808974;29;20075;-94
2023/04/16 03:25:27;;;;;;;10.13;3.70;;;6.60;78.20;;;;;;4795619;29;20047;-94
2023/04/16 03:27:55;;;;;;;9.88;3.05;;;6.60;78.50;;;;;;4795882;29;20051;-94
2023/04/16 03:30:22;;;;;;;10.20;3.90;;;6.60;78.40;;;;;;4795954;29;20050;-94
2023/04/16 03:32:49;;;;;;;9.80;3.57;;;6.60;78.50;;;;;;4809967;29;20133;-94
2023/04/16 03:35:17;;;;;;;9.68;3.58;;;6.60;78.40;;;;;;4793149;29;20051;-95
2023/04/16 03:37:44;;;;;;;9.50;3.40;;;6.60;78.50;;;;;;4808611;29;20043;-94
2023/04/16 03:40:11;;;;;;;10.40;4.05;;;6.60;78.40;;;;;;4792165;29;20051;-94
2023/04/16 03:42:39;;;;;;;9.43;3.40;;;6.50;78.40;;;;;;4807140;29;20047;-94
2023/04/16 03:45:08;;;;;;;10.47;4.07;;;6.50;78.30;;;;;;4792020;29;20501;-94
2023/04/16 03:47:36;;;;;;;10.30;4.20;;;6.50;78.10;;;;;;4806904;29;20065;-93
2023/04/16 03:50:04;;;;;;;13.77;4.38;;;6.50;78.10;;;;;;4807023;29;20058;-93
2023/04/16 03:52:31;;;;;;;9.80;4.03;;;6.50;78.10;;;;;;4792036;29;20055;-95
2023/04/16 03:54:58;;;;;;;12.23;4.30;;;6.50;78.30;;;;;;4807518;29;20057;-93
2023/04/16 03:57:29;;;;;;;10.97;4.47;;;6.50;78.50;;;;;;4792526;29;20111;-94
2023/04/16 04:00:02;;;;;;;12.68;4.63;;;6.50;78.70;;;;;;4807682;29;20050;-93
2023/04/16 04:02:40;;;;;;;10.95;4.30;;;6.40;78.80;;;;;;4807329;29;20051;-94
2023/04/16 04:05:14;;;;;;;10.55;3.88;;;6.40;78.90;;;;;;4807849;29;20047;-94
2023/04/16 04:07:43;;;;;;;9.38;3.78;;;6.40;78.80;;;;;;4806907;29;20142;-93
2023/04/16 04:10:10;;;;;;;9.80;3.60;;;6.50;78.60;;;;;;4806604;29;20082;-95
2023/04/16 04:12:40;;;;;;;9.85;3.83;;;6.50;78.40;;;;;;4792441;29;20043;-95
2023/04/16 04:15:08;;;;;;;10.93;4.00;;;6.60;77.80;;;;;;4791996;29;20054;-93
2023/04/16 04:17:35;;;;;;;9.43;3.47;;;6.60;77.60;;;;;;4807278;29;20051;-94
2023/04/16 04:20:05;;;;;;;11.30;4.30;;;6.60;77.90;;;;;;4807168;29;20086;-94
2023/04/16 04:22:32;;;;;;;9.87;3.80;;;6.70;77.80;;;;;;4791786;29;20058;-95
2023/04/16 04:25:00;;;;;;;12.05;4.30;;;6.60;78.00;;;;;;4807237;29;20398;-94
2023/04/16 04:27:29;;;;;;;8.98;3.78;;;6.50;78.30;;;;;;4792093;29;20051;-94
2023/04/16 04:29:57;;;;;;;10.60;3.70;;;6.50;78.60;;;;;;4791311;29;20145;-94
2023/04/16 04:32:24;;;;;;;9.05;3.85;;;6.50;78.70;;;;;;4806646;29;20047;-94
2023/04/16 04:34:51;;;;;;;11.57;3.70;;;6.50;78.80;;;;;;4806404;29;20081;-95
2023/04/16 04:37:19;;;;;;;8.85;3.65;;;6.50;78.90;;;;;;4806563;29;20055;-94
2023/04/16 04:39:46;;;;;;;9.82;4.00;;;6.50;79.00;;;;;;4791267;29;20422;-94
2023/04/16 04:47:21;;;;;;;12.13;5.03;;;6.60;78.80;;;;;;4808042;29;20394;-94
2023/04/16 04:49:58;;;;;;;10.10;4.17;;;6.70;78.70;;;;;;4796313;29;20382;-95
2023/04/16 05:00:37;;;;;;;8.38;3.45;;;6.80;78.40;;;;;;4711284;30;20127;-94
2023/04/16 05:31:18;;;;;;;6.90;2.50;;;7.50;78.30;;;;;;4742177;30;20472;-96
2023/04/16 05:38:36;;;;;;;8.13;3.08;;;7.90;77.00;;;;;;4810865;29;20615;-95
2023/04/16 05:45:42;;;;;;;7.18;3.00;;;8.10;76.10;;;;;;4811464;29;20500;-96
2023/04/16 06:52:25;;;;;;;15.73;4.80;;;11.00;66.50;;;;;;1596828;24;20346;-91
2023/04/16 07:25:11;;;;;;;7.90;2.80;;;11.60;65.90;;;;;;5584529;24;20125;31
2023/04/16 07:49:13;;;;;;;5.13;0.90;;;12.10;62.30;;;;;;4912002;24;20482;-95
2023/04/16 07:51:43;;;;;;;4.90;1.73;;;12.00;62.70;;;;;;4807585;29;20053;-93
2023/04/16 07:54:10;;;;;;;6.40;1.92;;;12.00;62.80;;;;;;4829865;29;20520;-92
2023/04/16 07:56:37;;;;;;;5.43;1.10;;;12.10;63.30;;;;;;4812862;29;20049;-93
2023/04/16 07:59:04;;;;;;;3.83;0.70;;;12.10;63.30;;;;;;4813050;29;20062;-92
2023/04/16 08:01:48;;;;;;;4.90;1.67;;;12.10;62.60;;;;;;4828396;29;20512;-92
2023/04/16 08:04:21;;;;;;;5.88;1.70;;;12.20;63.70;;;;;;4812682;29;20053;-93
2023/04/16 08:06:50;;;;;;;4.93;1.20;;;12.10;63.50;;;;;;4812780;29;20144;-94
2023/04/16 08:09:19;;;;;;;4.50;1.10;;;12.10;63.00;;;;;;4812552;29;20512;-92
2023/04/16 08:11:48;;;;;;;3.23;0.97;;;12.20;64.30;;;;;;4827608;29;20054;-94
2023/04/16 08:14:16;;;;;;;4.30;1.20;;;12.30;63.10;;;;;;4813021;29;20050;-92
2023/04/16 08:16:43;;;;;;;5.03;2.10;;;12.30;61.40;;;;;;4798588;29;20058;-92
2023/04/16 08:19:10;;;;;;;5.30;2.00;;;12.30;61.90;;;;;;4809086;29;20386;-92
2023/04/16 08:21:38;;;;;;;5.68;1.67;;;12.40;61.90;;;;;;4794650;29;20058;-92
2023/04/16 08:24:06;;;;;;;3.20;1.20;;;12.40;63.60;;;;;;4820845;29;20057;-93
2023/04/16 08:26:33;;;;;;;4.85;2.28;;;12.50;61.20;;;;;;4812582;29;20046;-93
2023/04/16 08:29:05;;;;;;;4.00;1.25;;;12.50;61.60;;;;;;4812500;29;20053;-94
2023/04/16 08:31:32;;;;;;;3.13;0.88;;;12.70;60.10;;;;;;4795303;29;20575;-94
2023/04/16 08:34:00;;;;;;;2.35;0.88;;;12.60;60.70;;;;;;4794177;29;20141;-92
2023/04/16 08:36:33;;;;;;;3.37;1.00;;;12.30;60.80;;;;;;4809158;29;20774;-95
2023/04/16 08:39:01;;;;;;;3.08;0.90;;;12.30;62.40;;;;;;4794697;29;20103;-94
2023/04/16 08:41:33;;;;;;;2.80;0.88;;;12.30;62.10;;;;;;4795975;29;20078;-93
2023/04/16 08:44:07;;;;;;;2.50;0.70;;;12.50;61.80;;;;;;4794176;29;20050;-93
2023/04/16 08:46:39;;;;;;;3.55;1.10;;;12.90;61.60;;;;;;4809295;29;20050;-93
2023/04/16 08:49:12;;;;;;;4.47;1.50;;;13.00;60.90;;;;;;4792635;29;20130;-94
2023/04/16 08:51:56;;;;;;;3.42;1.08;;;13.10;60.00;;;;;;4793899;29;20138;-94
2023/04/16 08:54:58;;;;;;;4.40;1.42;;;13.10;59.80;;;;;;4807876;29;20581;-94
2023/04/16 08:57:57;;;;;;;4.00;1.13;;;13.30;59.80;;;;;;4794730;29;20047;-95
2023/04/16 09:00:40;;;;;;;4.50;1.40;;;13.10;58.70;;;;;;4771438;30;20539;-94
2023/04/16 09:03:08;;;;;;;3.60;1.17;;;13.00;59.60;;;;;;4762426;30;20105;-94
2023/04/16 09:05:36;;;;;;;4.05;1.10;;;13.20;61.40;;;;;;4816258;29;20145;-95
2023/04/16 09:08:07;;;;;;;3.80;1.10;;;13.30;59.90;;;;;;4813563;29;20081;-95
2023/04/16 09:10:34;;;;;;;5.43;1.35;;;13.30;59.60;;;;;;4828326;29;20050;-96
2023/04/16 10:10:26;;;;;;;3.63;0.80;;;13.90;56.00;;;;;;5578010;23;20046;-96
2023/04/16 10:13:13;;;;;;;3.05;0.85;;;13.80;56.80;;;;;;4819475;29;20111;-95
2023/04/16 10:15:49;;;;;;;4.30;0.90;;;13.80;56.10;;;;;;4817793;29;20046;-96
2023/04/16 10:22:43;;;;;;;4.60;0.97;;;14.30;54.90;;;;;;4830175;29;20037;-96
2023/04/16 10:25:11;;;;;;;4.22;1.33;;;14.50;52.60;;;;;;4797266;29;20070;-96
2023/04/16 10:27:39;;;;;;;5.10;1.40;;;14.50;54.40;;;;;;4804591;29;20054;-96
2023/04/16 10:34:49;;;;;;;3.88;1.13;;;14.50;54.40;;;;;;4843625;29;20183;-96
2023/04/16 11:27:27;;;;;;;4.37;1.20;;;14.90;53.60;;;;;;5598219;23;20032;31
2023/04/16 11:40:11;;;;;;;3.95;1.02;;;15.00;53.30;;;;;;4814275;29;20033;-96
2023/04/16 11:42:48;;;;;;;3.60;1.00;;;15.10;53.10;;;;;;4795536;29;20057;-96
2023/04/16 11:54:41;;;;;;;3.72;1.10;;;15.10;52.50;;;;;;5352387;24;20513;-92
2023/04/16 11:57:10;;;;;;;3.55;1.00;;;15.10;52.90;;;;;;4816104;29;20054;-94
2023/04/16 11:59:47;;;;;;;3.67;1.10;;;15.10;51.90;;;;;;4796174;29;20050;-93
2023/04/16 12:02:44;;;;;;;2.97;0.93;;;15.20;54.70;;;;;;4812145;29;20054;-93
2023/04/16 12:05:42;;;;;;;3.58;1.10;;;15.40;52.30;;;;;;4811549;29;20094;-94
2023/04/16 12:08:11;;;;;;;3.28;1.00;;;15.30;51.20;;;;;;4810523;29;20050;-94
2023/04/16 12:10:55;;;;;;;2.72;1.00;;;15.40;51.10;;;;;;4796669;29;20050;-95
2023/04/16 12:13:22;;;;;;;3.00;0.60;;;15.60;51.50;;;;;;4811816;29;20054;-95
2023/04/16 12:15:51;;;;;;;3.63;1.00;;;15.90;52.10;;;;;;4795829;29;20054;-93
2023/04/16 12:23:02;;;;;;;5.72;1.02;;;16.00;51.10;;;;;;4778408;30;20059;-96
2023/04/16 12:26:18;;;;;;;3.95;1.42;;;15.90;52.50;;;;;;4765634;30;20138;-95
2023/04/16 12:28:46;;;;;;;3.67;1.20;;;15.90;53.10;;;;;;4758161;30;20507;-96
2023/04/16 12:31:17;;;;;;;3.40;0.88;;;16.00;53.40;;;;;;4758557;29;20052;-95
2023/04/16 12:37:46;;;;;;;2.08;0.60;;;16.20;50.80;;;;;;4960856;24;20058;-96
2023/04/16 12:55:37;;;;;;;4.32;1.10;;;16.00;51.40;;;;;;4850515;24;20050;31
2023/04/16 12:58:20;;;;;;;2.50;0.70;;;16.10;50.60;;;;;;4787535;30;20051;-96
2023/04/16 13:00:48;;;;;;;3.45;1.00;;;16.00;51.30;;;;;;4780112;30;20115;-95
2023/04/16 13:03:16;;;;;;;4.53;0.90;;;15.90;51.10;;;;;;4773524;30;20047;-93
2023/04/16 13:05:44;;;;;;;4.53;1.10;;;15.80;51.10;;;;;;4787985;30;20100;-93
2023/04/16 13:08:11;;;;;;;2.67;0.90;;;15.80;51.60;;;;;;4788399;29;20104;-93
2023/04/16 13:10:38;;;;;;;5.75;2.33;;;15.70;52.00;;;;;;4788125;29;20058;-93
2023/04/16 13:13:05;;;;;;;4.88;1.92;;;15.70;52.80;;;;;;4788743;29;20059;-93
2023/04/16 13:15:32;;;;;;;4.93;1.60;;;15.90;51.50;;;;;;4788170;29;20100;-92
2023/04/16 13:18:06;;;;;;;3.97;1.10;;;16.10;51.70;;;;;;4772857;30;20054;-93
2023/04/16 13:33:44;;;;;;;2.70;0.90;;;16.60;49.40;;;;;;4735658;30;20149;-93
2023/04/16 13:36:14;;;;;;;5.03;2.00;;;16.60;48.90;;;;;;4742318;30;20060;-93
2023/04/16 13:38:59;;;;;;;4.25;2.40;;;16.70;50.90;;;;;;4754317;30;20047;-92
2023/04/16 13:41:43;;;;;;;2.90;1.45;;;16.90;51.00;;;;;;4756703;30;20419;-92
2023/04/16 13:44:10;;;;;;;4.78;1.92;;;16.80;48.90;;;;;;4757672;30;20056;-92
2023/04/16 14:15:35;;;;;;;4.25;1.70;;;15.60;53.90;;;;;;4719628;30;20128;-93
2023/04/16 14:18:06;;;;;;;4.90;2.05;;;15.60;52.40;;;;;;4735641;30;20056;-93
2023/04/16 14:25:21;;;;;;;4.80;2.33;;;15.50;52.00;;;;;;4776298;30;20525;-93
2023/04/16 14:37:17;;;;;;;4.35;1.73;;;15.80;51.20;;;;;;4772913;30;20063;-93
2023/04/16 14:44:19;;;;;;;3.72;1.58;;;15.80;51.50;;;;;;4773349;30;20089;-93
2023/04/16 14:55:57;;;;;;;3.58;1.40;;;16.10;49.60;;;;;;4719414;30;20508;-95
2023/04/16 14:58:25;;;;;;;4.80;1.90;;;16.10;50.60;;;;;;4738843;30;20150;-96
2023/04/16 15:00:52;;;;;;;4.72;1.73;;;16.10;49.50;;;;;;4772111;30;20058;-95
2023/04/16 15:03:20;;;;;;;2.87;1.50;;;16.00;50.90;;;;;;4772414;30;20058;-96
2023/04/16 15:05:53;;;;;;;17.50;2.13;;;16.10;49.30;;;;;;4772695;30;20052;-95
2023/04/16 15:08:22;;;;;;;4.10;1.42;;;16.10;50.20;;;;;;4772445;30;20574;-96
2023/04/16 15:11:21;;;;;;;5.10;2.00;;;16.00;49.80;;;;;;4771967;30;20066;-95
2023/04/16 15:13:49;;;;;;;4.60;1.70;;;16.00;49.70;;;;;;4771544;30;20055;-95
2023/04/16 15:16:16;;;;;;;4.07;1.67;;;16.00;50.30;;;;;;4757678;30;20392;-95
2023/04/16 15:18:43;;;;;;;4.07;1.90;;;16.00;50.20;;;;;;4786936;30;20116;-95
2023/04/16 15:21:11;;;;;;;5.80;1.45;;;16.00;48.60;;;;;;4757192;30;20484;-95
2023/04/16 15:23:56;;;;;;;3.38;1.35;;;15.90;49.50;;;;;;4786743;30;20083;-95
2023/04/16 15:26:24;;;;;;;3.85;1.58;;;15.90;49.80;;;;;;4772066;30;21606;-95
2023/04/16 15:28:55;;;;;;;4.87;2.00;;;15.90;49.50;;;;;;4772175;30;20418;-96
2023/04/16 15:31:22;;;;;;;5.40;1.70;;;15.90;50.10;;;;;;4786454;30;20048;-95
2023/04/16 15:34:47;;;;;;;;;;;;;;;;;;;;;
2023/04/16 15:38:28;;;;;;;4.80;1.80;;;16.00;50.30;;;;;;4703893;30;20150;-94
2023/04/16 15:40:59;;;;;;;6.15;2.33;;;16.10;50.30;;;;;;4689939;30;20057;-95
2023/04/16 15:43:28;;;;;;;5.30;2.13;;;16.00;50.50;;;;;;4703929;30;20151;-96
2023/04/16 15:45:56;;;;;;;3.42;1.40;;;16.00;51.00;;;;;;4704033;30;20061;-95
2023/04/16 15:48:23;;;;;;;6.20;2.67;;;16.00;50.80;;;;;;4704567;30;20057;-95
2023/04/16 15:50:51;;;;;;;5.20;1.90;;;16.00;50.20;;;;;;4703779;30;20402;-95
2023/04/16 15:53:19;;;;;;;26.20;11.25;;;15.80;50.20;;;;;;4703509;30;20053;-94
2023/04/16 15:55:48;;;;;;;63.77;20.73;;;15.80;50.40;;;;;;4703793;30;20075;-94
2023/04/16 15:58:16;;;;;;;10.70;3.05;;;15.70;50.50;;;;;;4703251;30;20082;-95
2023/04/16 16:00:46;;;;;;;6.75;2.50;;;15.70;50.60;;;;;;4703485;30;20107;-94
2023/04/16 16:03:13;;;;;;;4.10;1.60;;;15.70;51.40;;;;;;4703771;30;20077;-95
2023/04/16 16:05:41;;;;;;;3.20;1.52;;;15.70;50.30;;;;;;4703192;30;20115;-95
2023/04/16 16:08:08;;;;;;;5.90;2.03;;;15.70;50.80;;;;;;4703342;30;20402;-95
2023/04/16 16:10:35;;;;;;;4.50;1.88;;;15.70;50.90;;;;;;4703315;30;20095;-95
2023/04/16 16:13:04;;;;;;;4.10;1.85;;;15.60;50.90;;;;;;4703146;30;20509;-95
2023/04/16 16:15:31;;;;;;;4.43;1.63;;;15.50;51.60;;;;;;4771409;30;20056;-95
2023/04/16 16:17:58;;;;;;;6.63;2.42;;;15.50;50.50;;;;;;4771100;30;20056;-95
2023/04/16 16:20:26;;;;;;;5.00;2.07;;;15.50;50.70;;;;;;4771114;30;20048;-95
2023/04/16 16:22:53;;;;;;;5.45;2.30;;;15.50;50.70;;;;;;4771171;30;20051;-95
2023/04/16 16:25:21;;;;;;;5.55;2.47;;;15.40;51.40;;;;;;4771105;30;20499;-94
2023/04/16 16:27:48;;;;;;;5.88;2.22;;;15.40;51.30;;;;;;4785649;30;20052;-96
2023/04/16 16:30:15;;;;;;;4.65;2.20;;;15.40;53.10;;;;;;4771073;30;20063;-95
2023/04/16 16:32:43;;;;;;;6.23;2.30;;;15.40;52.10;;;;;;4785644;30;20075;-95
2023/04/16 16:35:11;;;;;;;5.80;2.45;;;15.30;51.30;;;;;;4756609;30;20048;-95
2023/04/16 16:37:38;;;;;;;7.10;3.13;;;15.30;51.30;;;;;;4785587;30;20051;-95
2023/04/16 16:40:06;;;;;;;6.22;2.70;;;15.20;51.60;;;;;;4756212;30;20048;-94
2023/04/16 16:42:34;;;;;;;6.35;2.28;;;15.20;52.00;;;;;;4786009;30;20052;-95
2023/04/16 16:45:04;;;;;;;6.20;2.57;;;15.20;51.70;;;;;;4771181;30;20078;-94
2023/04/16 16:47:32;;;;;;;5.80;2.45;;;15.20;51.50;;;;;;4770931;30;20139;-95
2023/04/16 16:49:59;;;;;;;4.55;2.03;;;15.20;51.70;;;;;;4770831;30;20142;-94
2023/04/16 16:52:29;;;;;;;5.80;2.50;;;15.10;51.30;;;;;;4771546;30;20087;-95
2023/04/16 16:54:56;;;;;;;7.35;2.78;;;15.00;51.40;;;;;;4770642;30;20047;-95
2023/04/16 16:57:23;;;;;;;6.07;2.30;;;15.00;51.40;;;;;;4770585;30;20051;-96
2023/04/16 16:59:50;;;;;;;6.18;2.45;;;15.00;51.50;;;;;;4755949;30;20047;-95
2023/04/16 17:02:17;;;;;;;5.68;2.40;;;15.00;51.60;;;;;;4785386;30;20056;-95
2023/04/16 17:04:45;;;;;;;7.55;3.03;;;15.00;51.30;;;;;;4770682;30;20572;-95
2023/04/16 17:07:12;;;;;;;14.25;5.13;;;15.00;51.20;;;;;;4770466;30;20059;-95
2023/04/16 17:09:39;;;;;;;21.87;8.87;;;15.00;51.10;;;;;;4770541;30;20055;-95
2023/04/16 17:12:06;;;;;;;22.08;8.73;;;15.00;51.30;;;;;;4785346;30;20503;-95
2023/04/16 17:14:34;;;;;;;25.33;10.40;;;14.90;51.90;;;;;;4770421;30;20044;-95
2023/04/16 17:17:01;;;;;;;11.88;4.55;;;14.90;53.10;;;;;;4773389;30;20096;-95
2023/04/16 17:19:28;;;;;;;10.90;4.05;;;14.90;51.90;;;;;;4774075;30;20077;-96
2023/04/16 17:21:55;;;;;;;10.40;3.83;;;14.80;51.80;;;;;;4774177;30;20056;-94
2023/04/16 17:24:23;;;;;;;7.43;2.92;;;14.80;52.00;;;;;;4773978;30;20051;-95
2023/04/16 17:26:50;;;;;;;8.07;3.75;;;14.80;52.00;;;;;;4778502;30;20051;-94
2023/04/16 17:29:18;;;;;;;7.18;3.50;;;14.80;52.60;;;;;;4793775;30;20087;-92
2023/04/16 17:31:46;;;;;;;9.90;4.10;;;14.70;53.80;;;;;;4777132;30;20562;-93
2023/04/16 17:34:13;;;;;;;9.30;3.93;;;14.60;54.60;;;;;;4763271;30;20056;-93
2023/04/16 17:40:43;;;;;;;10.55;5.03;;;14.50;55.60;;;;;;4777533;30;20046;-94
2023/04/16 17:43:10;;;;;;;11.98;4.80;;;14.40;56.00;;;;;;4807899;29;20104;-92
2023/04/16 17:45:38;;;;;;;10.80;4.85;;;14.40;56.40;;;;;;4794245;29;20050;-92
2023/04/16 17:48:05;;;;;;;9.60;4.70;;;14.30;56.80;;;;;;4809170;29;20061;-90
2023/04/16 17:50:32;;;;;;;13.13;5.50;;;14.20;57.00;;;;;;4792228;29;20387;-92
2023/04/16 17:53:02;;;;;;;13.68;6.65;;;14.30;57.30;;;;;;4796260;29;20050;-91
2023/04/16 17:59:56;;;;;;;16.77;8.20;;;14.20;58.30;;;;;;4732838;30;20567;-91
2023/04/16 18:02:24;;;;;;;20.00;8.27;;;14.10;58.70;;;;;;4711799;29;20054;-91
2023/04/16 18:04:51;;;;;;;19.15;8.55;;;14.00;59.30;;;;;;4784855;29;20090;-90
2023/04/16 18:07:19;;;;;;;19.08;8.88;;;14.00;59.40;;;;;;4798238;29;20087;-89
2023/04/16 18:09:45;;;;;;;19.80;8.60;;;14.00;59.60;;;;;;4792409;29;20151;-90
2023/04/16 18:12:12;;;;;;;19.90;8.73;;;14.00;60.10;;;;;;4808021;29;20043;-92
2023/04/16 18:14:43;;;;;;;18.83;8.70;;;14.00;60.30;;;;;;4797309;29;20157;-91
2023/04/16 18:17:11;;;;;;;21.67;9.18;;;13.90;60.40;;;;;;4795077;29;20085;-90
2023/04/16 18:19:42;;;;;;;20.65;9.50;;;13.90;60.50;;;;;;4800894;29;20077;-90
2023/04/16 18:22:11;;;;;;;19.50;10.02;;;13.80;60.90;;;;;;4781507;29;20047;-91
2023/04/16 18:24:39;;;;;;;18.88;9.48;;;13.90;61.10;;;;;;4796220;29;20059;-90
2023/04/16 18:27:06;;;;;;;20.47;10.43;;;13.80;61.00;;;;;;4780969;29;20100;-90
2023/04/16 18:29:33;;;;;;;17.83;9.52;;;13.80;61.00;;;;;;4790156;29;20055;-90
2023/04/16 18:32:00;;;;;;;18.45;9.65;;;13.90;61.20;;;;;;4797095;29;20108;-90
2023/04/16 18:34:30;;;;;;;16.95;9.32;;;13.90;61.10;;;;;;4788724;29;20054;-90
2023/04/16 18:36:57;;;;;;;18.13;9.85;;;13.80;61.20;;;;;;4792379;29;20047;-89
2023/04/16 18:39:24;;;;;;;16.97;9.83;;;13.80;61.40;;;;;;4807846;29;20104;-90
2023/04/16 18:41:51;;;;;;;18.25;9.50;;;13.70;61.60;;;;;;4807222;29;20055;-92
2023/04/16 18:44:19;;;;;;;18.95;9.57;;;13.70;61.70;;;;;;4795637;29;20055;-90
2023/04/16 18:46:47;;;;;;;16.40;9.23;;;13.70;61.80;;;;;;4788999;29;20061;-91
2023/04/16 18:49:14;;;;;;;16.50;9.43;;;13.70;62.20;;;;;;4791569;29;20134;-93
2023/04/16 18:51:41;;;;;;;15.20;9.50;;;13.70;62.30;;;;;;4792734;29;20058;-89
2023/04/16 18:54:08;;;;;;;18.63;9.35;;;13.70;62.50;;;;;;4804250;29;20043;-92
2023/04/16 18:56:35;;;;;;;16.80;9.65;;;13.70;62.90;;;;;;4783278;30;20105;-91
2023/04/16 18:59:05;;;;;;;20.23;10.15;;;13.60;63.90;;;;;;4775687;29;20047;-91
2023/04/16 19:01:32;;;;;;;17.77;9.82;;;13.60;64.20;;;;;;4796006;29;20077;-92
2023/04/16 19:04:00;;;;;;;19.87;10.67;;;13.50;64.40;;;;;;4792557;29;20115;-91
2023/04/16 19:06:28;;;;;;;21.92;11.80;;;13.50;64.20;;;;;;4792410;29;20149;-91
2023/04/16 19:08:55;;;;;;;21.20;11.30;;;13.50;64.40;;;;;;4792396;29;20506;-91
2023/04/16 19:11:22;;;;;;;20.98;11.10;;;13.50;64.00;;;;;;4807075;29;20051;-92
2023/04/16 19:13:49;;;;;;;19.90;10.98;;;13.50;64.30;;;;;;4777572;29;20142;-92
2023/04/16 19:16:16;;;;;;;20.53;11.27;;;13.50;63.90;;;;;;4792501;29;20509;-93
2023/04/16 19:18:43;;;;;;;20.55;10.98;;;13.40;64.70;;;;;;4777862;29;20137;-92
2023/04/16 19:21:10;;;;;;;18.92;11.35;;;13.40;64.30;;;;;;4792486;29;20055;-92
2023/04/16 19:23:37;;;;;;;20.08;10.73;;;13.30;64.30;;;;;;4792257;29;20093;-92
2023/04/16 19:26:05;;;;;;;19.98;10.68;;;13.30;64.80;;;;;;4796526;29;20058;-92
2023/04/16 19:28:32;;;;;;;19.50;9.97;;;13.20;64.90;;;;;;4810601;29;20046;-93
2023/04/16 19:30:59;;;;;;;18.98;10.50;;;13.20;64.70;;;;;;4810326;29;20058;-91
2023/04/16 19:33:26;;;;;;;18.70;10.40;;;13.10;64.90;;;;;;4795028;29;20054;-91
2023/04/16 19:35:53;;;;;;;18.80;10.95;;;13.10;65.30;;;;;;4793835;29;20078;-92
2023/04/16 19:38:20;;;;;;;17.52;10.05;;;13.00;65.60;;;;;;4776858;29;20086;-92
2023/04/16 19:40:47;;;;;;;17.90;10.77;;;12.90;66.00;;;;;;4791981;29;20121;-92
2023/04/16 19:43:14;;;;;;;21.08;11.55;;;12.80;66.20;;;;;;4798177;29;20061;-91
2023/04/16 19:45:43;;;;;;;19.23;11.18;;;12.70;66.30;;;;;;4799836;29;20054;-92